createdAt,value
2018-11-14T06:43:18.212Z,13.00
2018-11-14T06:51:16.154Z,13.97
2018-11-14T06:56:39.921Z,13.80
2018-11-14T07:01:50.178Z,13.13
2018-11-14T07:04:19.467Z,11.57
2018-11-14T07:06:48.683Z,16.07
2018-11-14T07:09:17.794Z,16.93
2018-11-14T07:11:46.978Z,16.33
2018-11-14T07:14:16.225Z,15.87
2018-11-14T07:16:45.281Z,13.93
2018-11-14T07:19:15.114Z,14.53
2018-11-14T07:21:44.245Z,13.80
2018-11-14T07:24:13.553Z,15.13
2018-11-14T07:26:43.135Z,16.83
2018-11-14T07:29:12.803Z,16.17
2018-11-14T07:31:42.161Z,16.50
2018-11-14T07:34:12.605Z,17.53
2018-11-14T07:36:42.482Z,14.20
2018-11-14T07:39:11.566Z,14.17
2018-11-14T07:41:41.322Z,13.40
2018-11-14T07:44:10.451Z,18.83
2018-11-14T07:46:39.605Z,18.53
2018-11-14T07:49:10.212Z,14.50
2018-11-14T07:51:39.583Z,33.70
2018-11-14T07:54:08.888Z,14.13
2018-11-14T07:56:38.551Z,13.37
2018-11-14T07:59:08.002Z,13.23
2018-11-14T08:01:37.206Z,13.83
2018-11-14T08:04:06.820Z,13.00
2018-11-14T08:06:37.357Z,12.13
2018-11-14T08:09:07.760Z,13.40
2018-11-14T08:11:37.237Z,16.33
2018-11-14T08:14:06.374Z,15.33
2018-11-14T08:16:35.889Z,15.77
2018-11-14T08:19:05.575Z,15.33
2018-11-14T08:21:34.937Z,14.37
2018-11-14T08:24:04.173Z,13.53
2018-11-14T08:26:33.680Z,11.97
2018-11-14T08:29:03.445Z,12.07
2018-11-14T08:31:32.905Z,12.03
2018-11-14T08:34:03.356Z,14.27
2018-11-14T08:36:32.941Z,10.87
2018-11-14T08:39:02.038Z,15.63
2018-11-14T08:41:31.373Z,13.93
2018-11-14T08:44:00.604Z,13.60
2018-11-14T08:46:31.121Z,17.43
2018-11-14T08:49:00.496Z,17.30
2018-11-14T08:51:30.553Z,17.73
2018-11-14T08:53:59.647Z,16.27
2018-11-14T08:56:28.864Z,16.23
2018-11-14T08:58:57.944Z,16.20
2018-11-14T09:01:27.594Z,17.47
2018-11-14T09:03:56.810Z,16.00
2018-11-14T09:06:25.961Z,12.73
2018-11-14T09:08:55.152Z,14.00
2018-11-14T09:11:24.518Z,13.87
2018-11-14T09:14:06.972Z,14.57
2018-11-14T09:16:36.038Z,13.90
2018-11-14T09:19:05.116Z,13.70
2018-11-14T09:21:34.676Z,12.70
2018-11-14T09:24:04.027Z,17.07
2018-11-14T09:26:33.187Z,12.73
2018-11-14T09:29:02.342Z,12.23
2018-11-14T09:31:33.527Z,15.03
2018-11-14T09:34:02.667Z,15.50
2018-11-14T09:36:31.947Z,17.03
2018-11-14T09:39:01.256Z,15.37
2018-11-14T09:41:30.450Z,15.57
2018-11-14T09:43:59.879Z,15.37
2018-11-14T09:46:29.087Z,18.77
2018-11-14T09:48:59.004Z,18.47
2018-11-14T09:51:28.373Z,16.63
2018-11-14T09:53:57.520Z,18.80
2018-11-14T09:56:26.687Z,19.23
2018-11-14T09:58:55.807Z,17.00
2018-11-14T10:01:24.868Z,16.50
2018-11-14T10:03:54.000Z,14.83
2018-11-14T10:06:23.519Z,15.80
2018-11-14T10:08:52.623Z,13.33
2018-11-14T10:11:21.704Z,16.33
2018-11-14T10:13:51.237Z,14.00
2018-11-14T10:16:20.577Z,12.50
2018-11-14T10:18:50.079Z,13.77
2018-11-14T10:21:19.245Z,17.00
2018-11-14T10:23:48.365Z,18.30
2018-11-14T10:26:17.389Z,15.70
2018-11-14T10:28:47.294Z,16.37
2018-11-14T10:31:16.507Z,18.47
2018-11-14T10:33:45.693Z,15.77
2018-11-14T10:36:14.961Z,17.53
2018-11-14T10:38:44.283Z,18.80
2018-11-14T10:41:13.473Z,21.00
2018-11-14T10:43:42.528Z,20.13
2018-11-14T10:46:11.714Z,16.50
2018-11-14T10:48:41.453Z,17.53
2018-11-14T10:51:10.904Z,17.27
2018-11-14T10:53:42.002Z,18.03
2018-11-14T10:56:11.328Z,21.73
2018-11-14T10:58:40.751Z,20.00
2018-11-14T11:01:15.345Z,18.13
2018-11-14T11:03:49.723Z,19.53
2018-11-14T11:06:33.942Z,18.43
2018-11-14T11:09:09.955Z,18.13
2018-11-14T11:11:44.475Z,16.97
2018-11-14T11:14:19.265Z,19.60
2018-11-14T11:16:53.685Z,17.80
2018-11-14T11:19:28.492Z,17.57
2018-11-14T11:22:09.609Z,15.57
2018-11-14T11:24:40.368Z,15.83
2018-11-14T11:27:10.601Z,17.03
2018-11-14T11:29:42.175Z,16.30
2018-11-14T11:32:18.416Z,19.13
2018-11-14T11:35:08.311Z,19.10
2018-11-14T11:43:31.819Z,17.97
2018-11-14T11:46:01.515Z,18.70
2018-11-14T11:48:30.653Z,16.50
2018-11-14T11:51:11.092Z,16.97
2018-11-14T11:53:40.307Z,18.07
2018-11-14T11:56:09.680Z,16.43
2018-11-14T11:58:41.881Z,17.83
2018-11-14T12:01:13.566Z,18.73
2018-11-14T12:03:42.961Z,16.90
2018-11-14T12:06:12.180Z,17.57
2018-11-14T12:08:41.394Z,14.43
2018-11-14T12:11:10.480Z,15.57
2018-11-14T12:13:39.891Z,16.60
2018-11-14T12:16:09.136Z,15.23
2018-11-14T12:18:38.643Z,16.70
2018-11-14T12:21:08.143Z,15.27
2018-11-14T12:23:37.536Z,17.50
2018-11-14T12:26:16.692Z,14.40
2018-11-14T12:28:45.868Z,14.90
2018-11-14T12:31:15.028Z,13.77
2018-11-14T12:33:43.966Z,13.97
2018-11-14T12:36:13.041Z,13.93
2018-11-14T12:38:42.144Z,12.93
2018-11-14T12:41:11.240Z,13.70
2018-11-14T12:43:40.747Z,15.03
2018-11-14T12:46:09.962Z,14.43
2018-11-14T12:48:39.852Z,15.33
2018-11-14T12:51:09.137Z,15.83
2018-11-14T12:53:38.432Z,15.20
2018-11-14T12:56:08.703Z,17.73
2018-11-14T12:58:38.306Z,16.40
2018-11-14T13:01:08.095Z,16.57
2018-11-14T13:03:37.360Z,20.13
2018-11-14T13:06:07.368Z,18.70
2018-11-14T13:08:36.616Z,18.77
2018-11-14T13:11:05.933Z,18.07
2018-11-14T13:13:40.286Z,20.47
2018-11-14T13:16:09.453Z,18.70
2018-11-14T13:18:38.718Z,22.27
2018-11-14T13:21:08.879Z,24.30
2018-11-14T13:23:38.070Z,16.47
2018-11-14T13:26:07.663Z,19.20
2018-11-14T13:28:38.056Z,17.33
2018-11-14T13:31:07.580Z,16.27
2018-11-14T13:33:36.751Z,15.23
2018-11-14T13:36:06.177Z,17.60
2018-11-14T13:38:35.714Z,14.70
2018-11-14T13:41:05.761Z,16.50
2018-11-14T13:43:35.032Z,19.13
2018-11-14T13:46:05.358Z,22.77
2018-11-14T13:48:34.628Z,20.80
2018-11-14T13:51:04.108Z,20.53
2018-11-14T13:53:33.321Z,23.23
2018-11-14T13:56:02.399Z,23.73
2018-11-14T13:58:31.750Z,23.13
2018-11-14T14:01:01.095Z,23.70
2018-11-14T14:03:30.268Z,21.83
2018-11-14T14:05:59.799Z,20.63
2018-11-14T14:08:28.915Z,22.33
2018-11-14T14:10:58.449Z,21.90
2018-11-14T14:13:42.492Z,21.57
2018-11-14T14:16:11.820Z,22.53
2018-11-14T14:18:41.175Z,24.87
2018-11-14T14:21:10.579Z,22.23
2018-11-14T14:23:39.899Z,23.13
2018-11-14T14:26:09.048Z,23.80
2018-11-14T14:28:38.511Z,22.77
2018-11-14T14:31:07.825Z,21.60
2018-11-14T14:33:37.269Z,24.33
2018-11-14T14:36:08.312Z,24.47
2018-11-14T14:38:37.724Z,20.17
2018-11-14T14:41:07.051Z,21.00
2018-11-14T14:43:36.453Z,27.93
2018-11-14T14:46:05.797Z,55.87
2018-11-14T14:48:35.200Z,26.40
2018-11-14T14:51:04.547Z,23.80
2018-11-14T14:53:33.965Z,23.87
2018-11-14T14:56:03.161Z,20.87
2018-11-14T14:58:32.293Z,21.13
2018-11-14T15:01:01.532Z,22.57
2018-11-14T15:03:30.999Z,31.23
2018-11-14T15:06:00.014Z,20.83
2018-11-14T15:08:29.445Z,18.93
2018-11-14T15:10:59.333Z,17.57
2018-11-14T15:13:28.551Z,17.97
2018-11-14T15:15:57.957Z,17.90
2018-11-14T15:18:27.162Z,16.90
2018-11-14T15:20:57.212Z,17.53
2018-11-14T15:23:26.359Z,16.33
2018-11-14T15:25:55.940Z,20.83
2018-11-14T15:28:25.388Z,21.63
2018-11-14T15:30:54.692Z,17.47
2018-11-14T15:33:24.001Z,17.30
2018-11-14T15:35:53.395Z,16.87
2018-11-14T15:38:22.797Z,19.20
2018-11-14T15:40:52.484Z,18.77
2018-11-14T15:43:22.077Z,18.10
2018-11-14T15:45:51.288Z,19.20
2018-11-14T15:48:21.565Z,20.73
2018-11-14T15:50:51.110Z,18.10
2018-11-14T15:53:20.528Z,18.80
2018-11-14T15:55:49.900Z,16.43
2018-11-14T15:58:20.856Z,17.13
2018-11-14T16:00:54.045Z,20.20
2018-11-14T16:03:23.301Z,21.67
2018-11-14T16:05:52.939Z,18.80
2018-11-14T16:08:22.959Z,20.37
2018-11-14T16:10:52.952Z,19.93
2018-11-14T16:13:23.676Z,19.83
2018-11-14T16:15:53.341Z,20.63
2018-11-14T16:18:22.833Z,19.43
2018-11-14T16:20:52.062Z,17.10
2018-11-14T16:23:21.164Z,17.97
2018-11-14T16:25:50.705Z,19.73
2018-11-14T16:28:20.554Z,19.47
2018-11-14T16:30:49.883Z,17.63
2018-11-14T16:33:18.943Z,19.10
2018-11-14T16:35:48.171Z,20.30
2018-11-14T16:38:17.801Z,22.97
2018-11-14T16:40:47.267Z,17.70
2018-11-14T16:43:16.873Z,18.03
2018-11-14T16:45:46.182Z,17.27
2018-11-14T16:48:15.661Z,18.43
2018-11-14T16:50:46.797Z,18.20
2018-11-14T16:53:15.995Z,19.20
2018-11-14T16:55:45.177Z,20.40
2018-11-14T16:58:14.295Z,18.07
2018-11-14T17:00:44.160Z,18.80
2018-11-14T17:03:13.275Z,17.30
2018-11-14T17:05:42.901Z,19.13
2018-11-14T17:08:12.613Z,18.43
2018-11-14T17:10:41.983Z,19.27
2018-11-14T17:13:13.079Z,17.17
2018-11-14T17:15:42.260Z,17.70
2018-11-14T17:18:23.493Z,19.23
2018-11-14T17:20:52.772Z,21.37
2018-11-14T17:23:22.423Z,18.20
2018-11-14T17:25:51.746Z,17.83
2018-11-14T17:28:21.129Z,19.20
2018-11-14T17:30:50.679Z,22.87
2018-11-14T17:33:19.865Z,19.27
2018-11-14T17:35:49.723Z,20.17
2018-11-14T17:38:18.859Z,18.97
2018-11-14T17:40:48.045Z,20.37
2018-11-14T17:43:17.939Z,19.03
2018-11-14T17:45:47.081Z,19.20
2018-11-14T17:48:16.304Z,17.00
2018-11-14T17:50:45.698Z,20.67
2018-11-14T17:53:15.186Z,19.50
2018-11-14T17:55:44.772Z,22.17
2018-11-14T17:58:13.928Z,20.33
2018-11-14T18:00:43.703Z,19.90
2018-11-14T18:03:13.009Z,17.80
2018-11-14T18:17:59.622Z,19.03
2018-11-14T18:20:31.345Z,21.87
2018-11-14T18:23:00.711Z,22.63
2018-11-14T18:25:30.985Z,19.60
2018-11-14T18:28:00.356Z,19.77
2018-11-14T18:30:30.860Z,20.03
2018-11-14T18:33:01.968Z,19.17
2018-11-14T18:35:31.378Z,22.50
2018-11-14T18:38:01.910Z,22.03
2018-11-14T18:40:33.709Z,19.80
2018-11-14T18:43:03.253Z,20.50
2018-11-14T18:45:33.736Z,19.97
2018-11-14T18:48:04.296Z,20.63
2018-11-14T18:50:33.647Z,18.57
2018-11-14T18:53:02.888Z,19.70
2018-11-14T18:55:35.149Z,19.93
2018-11-14T18:58:05.023Z,20.37
2018-11-14T19:00:35.731Z,18.63
2018-11-14T19:03:06.392Z,20.33
2018-11-14T19:05:36.124Z,19.77
2018-11-14T19:08:05.539Z,22.80
2018-11-14T19:10:35.117Z,20.03
2018-11-14T19:13:04.582Z,19.97
2018-11-14T19:15:35.617Z,20.93
2018-11-14T19:18:04.928Z,18.70
2018-11-14T19:20:35.587Z,20.23
2018-11-14T19:23:05.601Z,21.50
2018-11-14T19:25:36.489Z,19.80
2018-11-14T19:28:06.105Z,19.80
2018-11-14T19:30:36.939Z,20.33
2018-11-14T19:33:07.148Z,21.93
2018-11-14T19:35:39.017Z,22.33
2018-11-14T19:38:09.434Z,22.37
2018-11-14T19:40:39.502Z,22.03
2018-11-14T19:43:10.814Z,21.53
2018-11-14T19:45:41.264Z,18.77
2018-11-14T19:48:12.985Z,19.50
2018-11-14T19:50:42.938Z,19.87
2018-11-14T19:53:12.309Z,19.67
2018-11-14T19:55:55.486Z,22.03
2018-11-14T19:58:25.243Z,21.20
2018-11-14T20:00:54.573Z,21.97
2018-11-14T20:03:23.660Z,20.77
2018-11-14T20:05:53.078Z,20.67
2018-11-14T20:08:22.992Z,21.17
2018-11-14T20:10:52.191Z,21.40
2018-11-14T20:13:21.376Z,21.73
2018-11-14T20:15:50.590Z,22.87
2018-11-14T20:18:19.788Z,24.77
2018-11-14T20:20:49.190Z,20.43
2018-11-14T20:23:18.789Z,23.23
2018-11-14T20:25:48.029Z,24.17
2018-11-14T20:28:17.362Z,22.87
2018-11-14T20:30:46.611Z,22.70
2018-11-14T20:33:16.310Z,22.60
2018-11-14T20:35:45.473Z,24.43
2018-11-14T20:38:14.748Z,22.80
2018-11-14T20:40:44.082Z,21.07
2018-11-14T20:43:13.263Z,21.20
2018-11-14T20:45:42.668Z,21.00
2018-11-14T20:48:12.386Z,24.00
2018-11-14T20:50:42.187Z,18.77
2018-11-14T20:53:11.950Z,20.13
2018-11-14T20:55:41.234Z,19.07
2018-11-14T20:58:10.398Z,21.83
2018-11-14T21:00:40.029Z,19.30
2018-11-14T21:03:09.208Z,20.63
2018-11-14T21:05:38.381Z,19.33
2018-11-14T21:08:07.828Z,19.90
2018-11-14T21:10:37.295Z,18.83
2018-11-14T21:13:07.063Z,17.57
2018-11-14T21:15:37.980Z,16.50
2018-11-14T21:18:16.558Z,14.43
2018-11-14T21:20:45.816Z,17.40
2018-11-14T21:23:15.039Z,17.63
2018-11-14T21:25:44.475Z,17.00
2018-11-14T21:28:13.930Z,18.07
2018-11-14T21:30:43.152Z,20.53
2018-11-14T21:33:12.302Z,16.03
2018-11-14T21:35:41.904Z,16.47
2018-11-14T21:38:11.312Z,17.30
2018-11-14T21:40:40.438Z,16.83
2018-11-14T21:43:10.055Z,16.20
2018-11-14T21:45:39.439Z,16.53
2018-11-14T21:48:13.314Z,17.53
2018-11-14T21:50:42.673Z,15.93
2018-11-14T21:53:11.989Z,17.97
2018-11-14T21:55:41.758Z,14.23
2018-11-14T22:00:08.340Z,14.33
2018-11-14T22:02:41.163Z,14.10
2018-11-14T22:05:10.312Z,15.07
2018-11-14T22:07:40.234Z,14.00
2018-11-14T22:10:12.227Z,13.43
2018-11-14T22:12:42.024Z,12.77
2018-11-14T22:15:12.194Z,11.30
2018-11-14T22:17:41.712Z,12.30
2018-11-14T22:20:13.286Z,13.87
2018-11-14T22:22:43.402Z,13.03
2018-11-14T22:25:14.724Z,12.30
2018-11-14T22:27:44.352Z,13.93
2018-11-14T22:30:19.035Z,13.40
2018-11-14T22:32:48.333Z,13.53
2018-11-14T22:35:19.649Z,13.67
2018-11-14T22:37:49.363Z,12.47
2018-11-14T22:40:20.282Z,13.50
2018-11-14T22:42:49.604Z,14.07
2018-11-14T22:45:19.935Z,13.17
2018-11-14T22:47:50.539Z,13.43
2018-11-14T22:50:21.288Z,13.43
2018-11-14T22:52:50.649Z,14.97
2018-11-14T22:55:20.849Z,15.50
2018-11-14T22:57:50.739Z,13.80
2018-11-14T23:00:24.741Z,13.80
2018-11-14T23:02:56.326Z,13.87
2018-11-14T23:05:25.541Z,14.20
2018-11-14T23:07:59.483Z,13.23
2018-11-14T23:10:29.343Z,13.80
2018-11-14T23:12:58.520Z,14.23
2018-11-14T23:15:27.767Z,13.73
2018-11-14T23:17:57.304Z,13.43
2018-11-14T23:20:27.155Z,10.77
2018-11-14T23:22:56.539Z,16.33
2018-11-14T23:25:25.721Z,12.37
2018-11-14T23:27:55.848Z,12.63
2018-11-14T23:30:26.332Z,12.87
2018-11-14T23:32:56.826Z,13.93
2018-11-14T23:35:30.235Z,14.57
2018-11-14T23:38:00.968Z,11.17
2018-11-14T23:40:30.249Z,13.13
2018-11-14T23:42:59.429Z,13.07
2018-11-14T23:45:29.117Z,12.70
2018-11-14T23:47:58.289Z,11.93
2018-11-14T23:50:28.811Z,11.90
2018-11-14T23:52:59.032Z,12.77
2018-11-14T23:55:29.191Z,12.70
2018-11-14T23:57:58.588Z,12.77
